sensor_id;sensor_type;location;lat;lon;timestamp;P1;durP1;ratioP1;P2;durP2;ratioP2
335;SDS011;156;48.738;9.228;2023-04-25T00:00:46;0.50;;;0.40;;
335;SDS011;156;48.738;9.228;2023-04-25T00:03:13;2.90;;;2.70;;
335;SDS011;156;48.738;9.228;2023-04-25T00:05:42;1.45;;;0.60;;
335;SDS011;156;48.738;9.228;2023-04-25T00:08:10;0.60;;;0.47;;
335;SDS011;156;48.738;9.228;2023-04-25T00:10:37;0.50;;;0.40;;
335;SDS011;156;48.738;9.228;2023-04-25T00:13:04;0.50;;;0.30;;
335;SDS011;156;48.738;9.228;2023-04-25T00:15:31;0.50;;;0.30;;
335;SDS011;156;48.738;9.228;2023-04-25T00:17:58;0.50;;;0.30;;
335;SDS011;156;48.738;9.228;2023-04-25T00:20:25;7.13;;;3.00;;
335;SDS011;156;48.738;9.228;2023-04-25T00:22:53;0.40;;;0.30;;
335;SDS011;156;48.738;9.228;2023-04-25T00:25:20;0.50;;;0.30;;
335;SDS011;156;48.738;9.228;2023-04-25T00:27:47;0.50;;;0.30;;
335;SDS011;156;48.738;9.228;2023-04-25T00:30:14;0.40;;;0.30;;
335;SDS011;156;48.738;9.228;2023-04-25T00:32:41;0.50;;;0.30;;
335;SDS011;156;48.738;9.228;2023-04-25T00:35:08;1.13;;;1.05;;
335;SDS011;156;48.738;9.228;2023-04-25T00:37:35;0.50;;;0.30;;
335;SDS011;156;48.738;9.228;2023-04-25T00:40:06;0.50;;;0.30;;
335;SDS011;156;48.738;9.228;2023-04-25T00:42:34;1.48;;;1.15;;
335;SDS011;156;48.738;9.228;2023-04-25T00:45:03;1.08;;;0.98;;
335;SDS011;156;48.738;9.228;2023-04-25T00:47:32;0.50;;;0.50;;
335;SDS011;156;48.738;9.228;2023-04-25T00:49:59;0.82;;;0.82;;
335;SDS011;156;48.738;9.228;2023-04-25T00:52:26;0.50;;;0.30;;
335;SDS011;156;48.738;9.228;2023-04-25T00:54:53;0.50;;;0.35;;
335;SDS011;156;48.738;9.228;2023-04-25T00:57:22;0.70;;;0.60;;
335;SDS011;156;48.738;9.228;2023-04-25T00:59:49;0.50;;;0.30;;
335;SDS011;156;48.738;9.228;2023-04-25T01:02:18;0.65;;;0.57;;
335;SDS011;156;48.738;9.228;2023-04-25T01:04:45;0.70;;;0.57;;
335;SDS011;156;48.738;9.228;2023-04-25T01:07:13;0.50;;;0.50;;
335;SDS011;156;48.738;9.228;2023-04-25T01:09:41;0.60;;;0.55;;
335;SDS011;156;48.738;9.228;2023-04-25T01:12:07;0.50;;;0.50;;
335;SDS011;156;48.738;9.228;2023-04-25T01:14:36;0.50;;;0.40;;
335;SDS011;156;48.738;9.228;2023-04-25T01:17:03;0.50;;;0.40;;
335;SDS011;156;48.738;9.228;2023-04-25T01:19:30;0.50;;;0.40;;
335;SDS011;156;48.738;9.228;2023-04-25T01:21:58;0.80;;;0.65;;
335;SDS011;156;48.738;9.228;2023-04-25T01:24:26;2.78;;;2.58;;
335;SDS011;156;48.738;9.228;2023-04-25T01:26:53;1.70;;;1.15;;
335;SDS011;156;48.738;9.228;2023-04-25T01:29:21;0.70;;;0.65;;
335;SDS011;156;48.738;9.228;2023-04-25T01:31:49;1.08;;;0.98;;
335;SDS011;156;48.738;9.228;2023-04-25T01:34:18;0.50;;;0.40;;
335;SDS011;156;48.738;9.228;2023-04-25T01:36:45;0.80;;;0.70;;
335;SDS011;156;48.738;9.228;2023-04-25T01:39:14;0.60;;;0.60;;
335;SDS011;156;48.738;9.228;2023-04-25T01:41:41;0.50;;;0.40;;
335;SDS011;156;48.738;9.228;2023-04-25T01:44:09;0.50;;;0.50;;
335;SDS011;156;48.738;9.228;2023-04-25T01:46:36;2.03;;;1.90;;
335;SDS011;156;48.738;9.228;2023-04-25T01:49:03;0.90;;;0.80;;
335;SDS011;156;48.738;9.228;2023-04-25T01:51:30;0.70;;;0.60;;
335;SDS011;156;48.738;9.228;2023-04-25T01:53:57;2.13;;;1.98;;
335;SDS011;156;48.738;9.228;2023-04-25T01:56:27;1.30;;;1.25;;
335;SDS011;156;48.738;9.228;2023-04-25T01:58:56;1.42;;;1.35;;
335;SDS011;156;48.738;9.228;2023-04-25T02:01:24;2.83;;;1.98;;
335;SDS011;156;48.738;9.228;2023-04-25T02:03:50;1.55;;;1.45;;
335;SDS011;156;48.738;9.228;2023-04-25T02:06:17;0.70;;;0.60;;
335;SDS011;156;48.738;9.228;2023-04-25T02:08:44;0.77;;;0.68;;
335;SDS011;156;48.738;9.228;2023-04-25T02:11:11;0.70;;;0.60;;
335;SDS011;156;48.738;9.228;2023-04-25T02:13:39;1.40;;;1.30;;
335;SDS011;156;48.738;9.228;2023-04-25T02:16:06;0.70;;;0.60;;
335;SDS011;156;48.738;9.228;2023-04-25T02:18:33;1.50;;;1.40;;
335;SDS011;156;48.738;9.228;2023-04-25T02:21:02;5.28;;;2.55;;
335;SDS011;156;48.738;9.228;2023-04-25T02:23:29;1.65;;;1.55;;
335;SDS011;156;48.738;9.228;2023-04-25T02:25:56;1.23;;;1.02;;
335;SDS011;156;48.738;9.228;2023-04-25T02:28:23;3.15;;;1.65;;
335;SDS011;156;48.738;9.228;2023-04-25T02:30:52;3.15;;;1.77;;
335;SDS011;156;48.738;9.228;2023-04-25T02:33:19;1.10;;;0.85;;
335;SDS011;156;48.738;9.228;2023-04-25T02:35:47;0.50;;;0.40;;
335;SDS011;156;48.738;9.228;2023-04-25T02:38:14;0.50;;;0.40;;
335;SDS011;156;48.738;9.228;2023-04-25T02:40:41;0.73;;;0.55;;
335;SDS011;156;48.738;9.228;2023-04-25T02:43:07;0.50;;;0.43;;
335;SDS011;156;48.738;9.228;2023-04-25T02:45:34;0.80;;;0.40;;
335;SDS011;156;48.738;9.228;2023-04-25T02:48:04;0.70;;;0.60;;
335;SDS011;156;48.738;9.228;2023-04-25T02:50:31;1.70;;;1.60;;
335;SDS011;156;48.738;9.228;2023-04-25T02:52:58;0.77;;;0.68;;
335;SDS011;156;48.738;9.228;2023-04-25T02:55:25;1.60;;;1.15;;
335;SDS011;156;48.738;9.228;2023-04-25T02:57:52;0.60;;;0.60;;
335;SDS011;156;48.738;9.228;2023-04-25T03:00:20;0.90;;;0.90;;
335;SDS011;156;48.738;9.228;2023-04-25T03:02:47;0.80;;;0.70;;
335;SDS011;156;48.738;9.228;2023-04-25T03:05:15;1.38;;;1.30;;
335;SDS011;156;48.738;9.228;2023-04-25T03:07:42;0.50;;;0.50;;
335;SDS011;156;48.738;9.228;2023-04-25T03:10:10;1.13;;;1.02;;
335;SDS011;156;48.738;9.228;2023-04-25T03:12:37;0.50;;;0.50;;
335;SDS011;156;48.738;9.228;2023-04-25T03:15:05;1.70;;;1.50;;
335;SDS011;156;48.738;9.228;2023-04-25T03:17:34;0.95;;;0.85;;
335;SDS011;156;48.738;9.228;2023-04-25T03:20:02;0.60;;;0.60;;
335;SDS011;156;48.738;9.228;2023-04-25T03:22:31;2.78;;;1.40;;
335;SDS011;156;48.738;9.228;2023-04-25T03:24:58;2.13;;;1.98;;
335;SDS011;156;48.738;9.228;2023-04-25T03:27:25;1.58;;;0.98;;
335;SDS011;156;48.738;9.228;2023-04-25T03:29:52;0.50;;;0.40;;
335;SDS011;156;48.738;9.228;2023-04-25T03:32:19;0.50;;;0.40;;
335;SDS011;156;48.738;9.228;2023-04-25T03:34:46;0.70;;;0.65;;
335;SDS011;156;48.738;9.228;2023-04-25T03:37:13;0.50;;;0.30;;
335;SDS011;156;48.738;9.228;2023-04-25T03:39:41;0.52;;;0.40;;
335;SDS011;156;48.738;9.228;2023-04-25T03:42:08;0.50;;;0.40;;
335;SDS011;156;48.738;9.228;2023-04-25T03:44:35;2.25;;;1.90;;
335;SDS011;156;48.738;9.228;2023-04-25T03:47:02;0.50;;;0.32;;
335;SDS011;156;48.738;9.228;2023-04-25T03:49:29;0.50;;;0.50;;
335;SDS011;156;48.738;9.228;2023-04-25T03:51:56;1.00;;;0.90;;
335;SDS011;156;48.738;9.228;2023-04-25T03:54:23;1.45;;;1.08;;
335;SDS011;156;48.738;9.228;2023-04-25T03:56:51;3.60;;;1.42;;
335;SDS011;156;48.738;9.228;2023-04-25T03:59:18;2.65;;;2.45;;
335;SDS011;156;48.738;9.228;2023-04-25T04:01:45;2.55;;;2.35;;
335;SDS011;156;48.738;9.228;2023-04-25T04:04:12;1.90;;;1.80;;
335;SDS011;156;48.738;9.228;2023-04-25T04:06:39;0.70;;;0.60;;
335;SDS011;156;48.738;9.228;2023-04-25T04:09:07;0.70;;;0.60;;
335;SDS011;156;48.738;9.228;2023-04-25T04:11:36;0.80;;;0.70;;
335;SDS011;156;48.738;9.228;2023-04-25T04:14:04;0.90;;;0.80;;
335;SDS011;156;48.738;9.228;2023-04-25T04:16:32;0.75;;;0.65;;
335;SDS011;156;48.738;9.228;2023-04-25T04:18:59;0.98;;;0.88;;
335;SDS011;156;48.738;9.228;2023-04-25T04:21:26;1.30;;;1.20;;
335;SDS011;156;48.738;9.228;2023-04-25T04:23:52;2.88;;;2.67;;
335;SDS011;156;48.738;9.228;2023-04-25T04:26:20;1.67;;;1.58;;
335;SDS011;156;48.738;9.228;2023-04-25T04:28:49;0.80;;;0.70;;
335;SDS011;156;48.738;9.228;2023-04-25T04:31:18;2.00;;;1.88;;
335;SDS011;156;48.738;9.228;2023-04-25T04:33:45;1.75;;;1.70;;
335;SDS011;156;48.738;9.228;2023-04-25T04:36:12;0.90;;;0.80;;
335;SDS011;156;48.738;9.228;2023-04-25T04:38:39;1.80;;;1.70;;
335;SDS011;156;48.738;9.228;2023-04-25T04:41:07;0.70;;;0.60;;
335;SDS011;156;48.738;9.228;2023-04-25T04:43:34;0.70;;;0.60;;
335;SDS011;156;48.738;9.228;2023-04-25T04:46:01;0.65;;;0.57;;
335;SDS011;156;48.738;9.228;2023-04-25T04:48:30;0.70;;;0.60;;
335;SDS011;156;48.738;9.228;2023-04-25T04:51:00;0.70;;;0.60;;
335;SDS011;156;48.738;9.228;2023-04-25T04:53:27;0.50;;;0.50;;
335;SDS011;156;48.738;9.228;2023-04-25T04:55:54;0.50;;;0.50;;
335;SDS011;156;48.738;9.228;2023-04-25T04:58:21;1.17;;;1.08;;
335;SDS011;156;48.738;9.228;2023-04-25T05:00:48;1.20;;;1.10;;
335;SDS011;156;48.738;9.228;2023-04-25T05:03:15;0.50;;;0.50;;
335;SDS011;156;48.738;9.228;2023-04-25T05:05:43;0.85;;;0.75;;
335;SDS011;156;48.738;9.228;2023-04-25T05:08:10;2.78;;;0.80;;
335;SDS011;156;48.738;9.228;2023-04-25T05:10:37;1.20;;;1.10;;
335;SDS011;156;48.738;9.228;2023-04-25T05:13:05;0.50;;;0.50;;
335;SDS011;156;48.738;9.228;2023-04-25T05:15:31;1.02;;;0.93;;
335;SDS011;156;48.738;9.228;2023-04-25T05:17:58;0.50;;;0.50;;
335;SDS011;156;48.738;9.228;2023-04-25T05:20:26;0.50;;;0.40;;
335;SDS011;156;48.738;9.228;2023-04-25T05:22:54;0.60;;;0.55;;
335;SDS011;156;48.738;9.228;2023-04-25T05:25:21;0.90;;;0.80;;
335;SDS011;156;48.738;9.228;2023-04-25T05:27:48;1.25;;;1.15;;
335;SDS011;156;48.738;9.228;2023-04-25T05:30:16;2.53;;;1.85;;
335;SDS011;156;48.738;9.228;2023-04-25T05:32:43;2.03;;;1.90;;
335;SDS011;156;48.738;9.228;2023-04-25T05:35:12;1.13;;;1.02;;
335;SDS011;156;48.738;9.228;2023-04-25T05:37:39;1.25;;;1.15;;
335;SDS011;156;48.738;9.228;2023-04-25T05:40:08;2.80;;;2.60;;
335;SDS011;156;48.738;9.228;2023-04-25T05:42:35;1.70;;;1.27;;
335;SDS011;156;48.738;9.228;2023-04-25T05:45:02;0.50;;;0.50;;
335;SDS011;156;48.738;9.228;2023-04-25T05:47:30;0.80;;;0.57;;
335;SDS011;156;48.738;9.228;2023-04-25T05:49:56;1.77;;;1.70;;
335;SDS011;156;48.738;9.228;2023-04-25T05:52:23;1.60;;;1.55;;
335;SDS011;156;48.738;9.228;2023-04-25T05:54:50;3.25;;;2.05;;
335;SDS011;156;48.738;9.228;2023-04-25T05:57:22;0.50;;;0.40;;
335;SDS011;156;48.738;9.228;2023-04-25T05:59:50;0.50;;;0.30;;
335;SDS011;156;48.738;9.228;2023-04-25T06:02:17;0.50;;;0.30;;
335;SDS011;156;48.738;9.228;2023-04-25T06:04:45;1.02;;;0.93;;
335;SDS011;156;48.738;9.228;2023-04-25T06:07:12;2.65;;;2.50;;
335;SDS011;156;48.738;9.228;2023-04-25T06:09:39;1.20;;;1.10;;
335;SDS011;156;48.738;9.228;2023-04-25T06:12:06;0.98;;;0.70;;
335;SDS011;156;48.738;9.228;2023-04-25T06:14:34;0.70;;;0.60;;
335;SDS011;156;48.738;9.228;2023-04-25T06:17:02;1.73;;;1.70;;
335;SDS011;156;48.738;9.228;2023-04-25T06:19:31;0.40;;;0.30;;
335;SDS011;156;48.738;9.228;2023-04-25T06:21:58;0.50;;;0.30;;
335;SDS011;156;48.738;9.228;2023-04-25T06:24:25;0.50;;;0.40;;
335;SDS011;156;48.738;9.228;2023-04-25T06:26:52;0.50;;;0.30;;
335;SDS011;156;48.738;9.228;2023-04-25T06:29:19;0.50;;;0.30;;
335;SDS011;156;48.738;9.228;2023-04-25T06:31:48;0.40;;;0.30;;
335;SDS011;156;48.738;9.228;2023-04-25T06:34:15;0.40;;;0.30;;
335;SDS011;156;48.738;9.228;2023-04-25T06:36:42;0.50;;;0.38;;
335;SDS011;156;48.738;9.228;2023-04-25T06:39:10;1.08;;;0.98;;
335;SDS011;156;48.738;9.228;2023-04-25T06:41:37;0.50;;;0.50;;
335;SDS011;156;48.738;9.228;2023-04-25T06:44:04;1.02;;;0.60;;
335;SDS011;156;48.738;9.228;2023-04-25T06:46:31;1.70;;;1.00;;
335;SDS011;156;48.738;9.228;2023-04-25T06:48:59;1.02;;;0.82;;
335;SDS011;156;48.738;9.228;2023-04-25T06:51:26;0.40;;;0.30;;
335;SDS011;156;48.738;9.228;2023-04-25T06:53:55;0.40;;;0.30;;
335;SDS011;156;48.738;9.228;2023-04-25T06:56:21;2.15;;;0.90;;
335;SDS011;156;48.738;9.228;2023-04-25T06:58:49;1.73;;;1.48;;
335;SDS011;156;48.738;9.228;2023-04-25T07:01:16;1.00;;;0.90;;
335;SDS011;156;48.738;9.228;2023-04-25T07:03:43;0.90;;;0.80;;
335;SDS011;156;48.738;9.228;2023-04-25T07:06:11;2.25;;;1.52;;
335;SDS011;156;48.738;9.228;2023-04-25T07:08:38;0.80;;;0.70;;
335;SDS011;156;48.738;9.228;2023-04-25T07:11:05;1.15;;;1.05;;
335;SDS011;156;48.738;9.228;2023-04-25T07:13:32;1.23;;;0.70;;
335;SDS011;156;48.738;9.228;2023-04-25T07:15:59;0.93;;;0.82;;
335;SDS011;156;48.738;9.228;2023-04-25T07:18:26;1.15;;;1.05;;
335;SDS011;156;48.738;9.228;2023-04-25T07:20:53;2.58;;;2.13;;
335;SDS011;156;48.738;9.228;2023-04-25T07:23:22;3.13;;;2.92;;
335;SDS011;156;48.738;9.228;2023-04-25T07:25:49;0.90;;;0.80;;
335;SDS011;156;48.738;9.228;2023-04-25T07:28:15;3.30;;;3.10;;
335;SDS011;156;48.738;9.228;2023-04-25T07:30:42;0.90;;;0.80;;
335;SDS011;156;48.738;9.228;2023-04-25T07:33:10;1.30;;;1.20;;
335;SDS011;156;48.738;9.228;2023-04-25T07:35:37;1.23;;;1.13;;
335;SDS011;156;48.738;9.228;2023-04-25T07:38:03;1.58;;;1.48;;
335;SDS011;156;48.738;9.228;2023-04-25T07:40:33;1.42;;;1.33;;
335;SDS011;156;48.738;9.228;2023-04-25T07:43:00;1.40;;;1.30;;
335;SDS011;156;48.738;9.228;2023-04-25T07:45:27;3.30;;;3.10;;
335;SDS011;156;48.738;9.228;2023-04-25T07:47:56;2.67;;;2.28;;
335;SDS011;156;48.738;9.228;2023-04-25T07:50:23;2.67;;;2.47;;
335;SDS011;156;48.738;9.228;2023-04-25T07:52:50;3.85;;;3.20;;
335;SDS011;156;48.738;9.228;2023-04-25T07:55:17;2.70;;;2.50;;
335;SDS011;156;48.738;9.228;2023-04-25T07:57:46;1.92;;;1.83;;
335;SDS011;156;48.738;9.228;2023-04-25T08:00:13;3.47;;;3.28;;
335;SDS011;156;48.738;9.228;2023-04-25T08:02:41;3.50;;;3.30;;
335;SDS011;156;48.738;9.228;2023-04-25T08:05:08;2.20;;;2.00;;
335;SDS011;156;48.738;9.228;2023-04-25T08:07:36;2.30;;;2.10;;
335;SDS011;156;48.738;9.228;2023-04-25T08:10:04;2.80;;;2.60;;
335;SDS011;156;48.738;9.228;2023-04-25T08:12:32;4.28;;;4.00;;
335;SDS011;156;48.738;9.228;2023-04-25T08:15:00;4.57;;;4.28;;
335;SDS011;156;48.738;9.228;2023-04-25T08:17:27;3.80;;;3.60;;
335;SDS011;156;48.738;9.228;2023-04-25T08:19:54;4.70;;;4.40;;
335;SDS011;156;48.738;9.228;2023-04-25T08:22:22;2.70;;;2.50;;
335;SDS011;156;48.738;9.228;2023-04-25T08:24:51;3.00;;;2.80;;
335;SDS011;156;48.738;9.228;2023-04-25T08:27:18;2.80;;;2.60;;
335;SDS011;156;48.738;9.228;2023-04-25T08:29:45;2.60;;;2.40;;
335;SDS011;156;48.738;9.228;2023-04-25T08:32:14;2.50;;;2.30;;
335;SDS011;156;48.738;9.228;2023-04-25T08:34:41;3.40;;;3.20;;
335;SDS011;156;48.738;9.228;2023-04-25T08:37:09;3.50;;;3.35;;
335;SDS011;156;48.738;9.228;2023-04-25T08:39:36;2.55;;;2.35;;
335;SDS011;156;48.738;9.228;2023-04-25T08:42:04;3.95;;;3.75;;
335;SDS011;156;48.738;9.228;2023-04-25T08:44:33;3.33;;;3.13;;
335;SDS011;156;48.738;9.228;2023-04-25T08:47:01;1.90;;;1.80;;
335;SDS011;156;48.738;9.228;2023-04-25T08:49:30;2.30;;;2.10;;
335;SDS011;156;48.738;9.228;2023-04-25T08:51:59;2.63;;;2.42;;
335;SDS011;156;48.738;9.228;2023-04-25T08:54:27;2.90;;;2.70;;
335;SDS011;156;48.738;9.228;2023-04-25T08:56:56;2.30;;;2.10;;
335;SDS011;156;48.738;9.228;2023-04-25T08:59:23;3.05;;;2.85;;
335;SDS011;156;48.738;9.228;2023-04-25T09:01:52;3.90;;;3.70;;
335;SDS011;156;48.738;9.228;2023-04-25T09:04:19;2.45;;;2.25;;
335;SDS011;156;48.738;9.228;2023-04-25T09:06:47;2.25;;;2.05;;
335;SDS011;156;48.738;9.228;2023-04-25T09:09:14;2.80;;;2.60;;
335;SDS011;156;48.738;9.228;2023-04-25T09:11:41;2.78;;;2.58;;
335;SDS011;156;48.738;9.228;2023-04-25T09:14:12;2.75;;;2.55;;
335;SDS011;156;48.738;9.228;2023-04-25T09:17:01;2.72;;;2.53;;
335;SDS011;156;48.738;9.228;2023-04-25T09:19:30;4.18;;;3.88;;
335;SDS011;156;48.738;9.228;2023-04-25T09:22:02;6.90;;;6.50;;
335;SDS011;156;48.738;9.228;2023-04-25T09:24:31;9.32;;;8.82;;
335;SDS011;156;48.738;9.228;2023-04-25T09:26:58;2.92;;;2.72;;
335;SDS011;156;48.738;9.228;2023-04-25T09:29:29;5.50;;;5.20;;
335;SDS011;156;48.738;9.228;2023-04-25T09:32:18;4.78;;;4.47;;
335;SDS011;156;48.738;9.228;2023-04-25T09:34:48;3.05;;;2.85;;
335;SDS011;156;48.738;9.228;2023-04-25T09:37:21;2.70;;;2.50;;
335;SDS011;156;48.738;9.228;2023-04-25T09:39:49;7.50;;;7.10;;
335;SDS011;156;48.738;9.228;2023-04-25T09:42:17;6.38;;;5.80;;
335;SDS011;156;48.738;9.228;2023-04-25T09:44:48;4.60;;;4.30;;
335;SDS011;156;48.738;9.228;2023-04-25T09:47:18;7.22;;;6.55;;
335;SDS011;156;48.738;9.228;2023-04-25T09:49:48;5.97;;;5.55;;
335;SDS011;156;48.738;9.228;2023-04-25T09:52:16;5.72;;;5.45;;
335;SDS011;156;48.738;9.228;2023-04-25T09:54:45;4.40;;;4.10;;
335;SDS011;156;48.738;9.228;2023-04-25T09:57:13;5.45;;;5.15;;
335;SDS011;156;48.738;9.228;2023-04-25T09:59:44;5.45;;;5.15;;
335;SDS011;156;48.738;9.228;2023-04-25T10:02:12;6.10;;;5.80;;
335;SDS011;156;48.738;9.228;2023-04-25T10:04:40;5.13;;;4.80;;
335;SDS011;156;48.738;9.228;2023-04-25T10:07:08;3.30;;;3.10;;
335;SDS011;156;48.738;9.228;2023-04-25T10:09:36;4.90;;;4.60;;
335;SDS011;156;48.738;9.228;2023-04-25T10:12:07;4.72;;;4.45;;
335;SDS011;156;48.738;9.228;2023-04-25T10:14:34;4.82;;;4.53;;
335;SDS011;156;48.738;9.228;2023-04-25T10:17:01;4.20;;;3.95;;
335;SDS011;156;48.738;9.228;2023-04-25T10:19:29;5.15;;;4.85;;
335;SDS011;156;48.738;9.228;2023-04-25T10:22:04;5.05;;;4.75;;
335;SDS011;156;48.738;9.228;2023-04-25T10:24:34;3.70;;;3.50;;
335;SDS011;156;48.738;9.228;2023-04-25T10:27:02;3.70;;;3.50;;
335;SDS011;156;48.738;9.228;2023-04-25T10:29:31;3.95;;;3.75;;
335;SDS011;156;48.738;9.228;2023-04-25T10:31:58;3.92;;;3.72;;
335;SDS011;156;48.738;9.228;2023-04-25T10:34:38;3.42;;;3.22;;
335;SDS011;156;48.738;9.228;2023-04-25T10:37:08;3.15;;;2.95;;
335;SDS011;156;48.738;9.228;2023-04-25T10:39:36;3.50;;;3.30;;
335;SDS011;156;48.738;9.228;2023-04-25T10:42:05;3.10;;;2.90;;
335;SDS011;156;48.738;9.228;2023-04-25T10:44:34;3.72;;;3.53;;
335;SDS011;156;48.738;9.228;2023-04-25T10:47:02;3.47;;;3.28;;
335;SDS011;156;48.738;9.228;2023-04-25T10:49:34;3.20;;;3.00;;
335;SDS011;156;48.738;9.228;2023-04-25T10:52:12;2.95;;;2.75;;
335;SDS011;156;48.738;9.228;2023-04-25T10:54:41;2.80;;;2.60;;
335;SDS011;156;48.738;9.228;2023-04-25T10:59:54;3.00;;;2.80;;
335;SDS011;156;48.738;9.228;2023-04-25T11:02:25;3.45;;;3.25;;
335;SDS011;156;48.738;9.228;2023-04-25T11:04:53;4.32;;;4.05;;
335;SDS011;156;48.738;9.228;2023-04-25T11:07:23;3.00;;;2.80;;
335;SDS011;156;48.738;9.228;2023-04-25T11:10:01;3.63;;;3.42;;
335;SDS011;156;48.738;9.228;2023-04-25T11:12:29;4.57;;;4.28;;
335;SDS011;156;48.738;9.228;2023-04-25T11:15:01;3.25;;;3.05;;
335;SDS011;156;48.738;9.228;2023-04-25T11:17:29;5.70;;;5.40;;
335;SDS011;156;48.738;9.228;2023-04-25T11:19:56;4.00;;;3.80;;
335;SDS011;156;48.738;9.228;2023-04-25T11:22:23;4.20;;;3.95;;
335;SDS011;156;48.738;9.228;2023-04-25T11:24:50;3.10;;;2.90;;
335;SDS011;156;48.738;9.228;2023-04-25T11:27:17;4.20;;;3.95;;
335;SDS011;156;48.738;9.228;2023-04-25T11:29:44;4.95;;;4.68;;
335;SDS011;156;48.738;9.228;2023-04-25T11:32:14;3.40;;;3.20;;
335;SDS011;156;48.738;9.228;2023-04-25T11:34:43;2.35;;;2.15;;
335;SDS011;156;48.738;9.228;2023-04-25T11:37:11;3.35;;;3.15;;
335;SDS011;156;48.738;9.228;2023-04-25T11:39:42;2.50;;;2.30;;
335;SDS011;156;48.738;9.228;2023-04-25T11:42:11;4.03;;;3.83;;
335;SDS011;156;48.738;9.228;2023-04-25T11:44:38;2.70;;;2.50;;
335;SDS011;156;48.738;9.228;2023-04-25T11:47:06;2.63;;;2.42;;
335;SDS011;156;48.738;9.228;2023-04-25T11:49:34;3.15;;;2.95;;
335;SDS011;156;48.738;9.228;2023-04-25T11:52:06;3.28;;;3.08;;
335;SDS011;156;48.738;9.228;2023-04-25T11:54:35;4.30;;;4.03;;
335;SDS011;156;48.738;9.228;2023-04-25T11:57:02;2.60;;;2.40;;
335;SDS011;156;48.738;9.228;2023-04-25T11:59:29;4.43;;;4.13;;
335;SDS011;156;48.738;9.228;2023-04-25T12:01:56;4.72;;;4.43;;
335;SDS011;156;48.738;9.228;2023-04-25T12:04:24;4.75;;;4.45;;
335;SDS011;156;48.738;9.228;2023-04-25T12:06:54;3.70;;;3.50;;
335;SDS011;156;48.738;9.228;2023-04-25T12:09:28;3.30;;;3.10;;
335;SDS011;156;48.738;9.228;2023-04-25T12:11:57;3.78;;;3.58;;
335;SDS011;156;48.738;9.228;2023-04-25T12:14:27;4.80;;;4.50;;
335;SDS011;156;48.738;9.228;2023-04-25T12:16:57;3.80;;;3.60;;
335;SDS011;156;48.738;9.228;2023-04-25T12:19:24;4.82;;;4.53;;
335;SDS011;156;48.738;9.228;2023-04-25T12:21:53;6.60;;;6.13;;
335;SDS011;156;48.738;9.228;2023-04-25T12:24:21;2.90;;;2.70;;
335;SDS011;156;48.738;9.228;2023-04-25T12:26:51;3.08;;;2.88;;
335;SDS011;156;48.738;9.228;2023-04-25T12:29:20;3.50;;;3.30;;
335;SDS011;156;48.738;9.228;2023-04-25T12:31:48;5.28;;;4.97;;
335;SDS011;156;48.738;9.228;2023-04-25T12:34:16;3.85;;;3.63;;
335;SDS011;156;48.738;9.228;2023-04-25T12:36:43;3.03;;;2.83;;
335;SDS011;156;48.738;9.228;2023-04-25T12:39:18;3.50;;;3.30;;
335;SDS011;156;48.738;9.228;2023-04-25T12:41:46;5.07;;;4.78;;
335;SDS011;156;48.738;9.228;2023-04-25T12:44:14;3.42;;;3.22;;
335;SDS011;156;48.738;9.228;2023-04-25T12:46:41;6.22;;;5.90;;
335;SDS011;156;48.738;9.228;2023-04-25T12:49:08;4.60;;;4.30;;
335;SDS011;156;48.738;9.228;2023-04-25T12:51:35;6.78;;;6.38;;
335;SDS011;156;48.738;9.228;2023-04-25T12:54:03;3.45;;;3.25;;
335;SDS011;156;48.738;9.228;2023-04-25T12:56:33;12.77;;;6.30;;
335;SDS011;156;48.738;9.228;2023-04-25T12:59:00;7.47;;;7.03;;
335;SDS011;156;48.738;9.228;2023-04-25T13:01:28;3.45;;;3.25;;
335;SDS011;156;48.738;9.228;2023-04-25T13:03:55;2.63;;;2.42;;
335;SDS011;156;48.738;9.228;2023-04-25T13:06:22;3.05;;;2.85;;
335;SDS011;156;48.738;9.228;2023-04-25T13:08:52;2.97;;;2.78;;
335;SDS011;156;48.738;9.228;2023-04-25T13:11:19;1.38;;;1.27;;
335;SDS011;156;48.738;9.228;2023-04-25T13:13:47;1.30;;;1.20;;
335;SDS011;156;48.738;9.228;2023-04-25T13:16:14;2.15;;;1.83;;
335;SDS011;156;48.738;9.228;2023-04-25T13:18:41;2.55;;;1.95;;
335;SDS011;156;48.738;9.228;2023-04-25T13:21:09;1.90;;;1.65;;
335;SDS011;156;48.738;9.228;2023-04-25T13:23:36;0.65;;;0.57;;
335;SDS011;156;48.738;9.228;2023-04-25T13:26:03;2.17;;;1.77;;
335;SDS011;156;48.738;9.228;2023-04-25T13:28:30;2.35;;;1.10;;
335;SDS011;156;48.738;9.228;2023-04-25T13:30:59;4.70;;;1.15;;
335;SDS011;156;48.738;9.228;2023-04-25T13:33:26;2.33;;;2.13;;
335;SDS011;156;48.738;9.228;2023-04-25T13:35:52;1.83;;;1.73;;
335;SDS011;156;48.738;9.228;2023-04-25T13:38:21;2.25;;;0.98;;
335;SDS011;156;48.738;9.228;2023-04-25T13:40:48;2.92;;;2.72;;
335;SDS011;156;48.738;9.228;2023-04-25T13:43:17;1.35;;;1.25;;
335;SDS011;156;48.738;9.228;2023-04-25T13:45:45;3.13;;;2.65;;
335;SDS011;156;48.738;9.228;2023-04-25T13:48:14;2.17;;;2.03;;
335;SDS011;156;48.738;9.228;2023-04-25T13:50:40;2.88;;;2.10;;
335;SDS011;156;48.738;9.228;2023-04-25T13:53:07;2.22;;;2.03;;
335;SDS011;156;48.738;9.228;2023-04-25T13:55:35;3.33;;;3.13;;
335;SDS011;156;48.738;9.228;2023-04-25T13:58:04;1.45;;;1.35;;
335;SDS011;156;48.738;9.228;2023-04-25T14:00:33;1.00;;;0.90;;
335;SDS011;156;48.738;9.228;2023-04-25T14:03:04;1.50;;;1.40;;
335;SDS011;156;48.738;9.228;2023-04-25T14:05:33;1.85;;;1.75;;
335;SDS011;156;48.738;9.228;2023-04-25T14:08:04;1.50;;;1.40;;
335;SDS011;156;48.738;9.228;2023-04-25T14:10:32;3.20;;;3.00;;
335;SDS011;156;48.738;9.228;2023-04-25T14:12:59;1.77;;;1.67;;
335;SDS011;156;48.738;9.228;2023-04-25T14:15:28;3.47;;;3.28;;
335;SDS011;156;48.738;9.228;2023-04-25T14:17:58;4.00;;;2.58;;
335;SDS011;156;48.738;9.228;2023-04-25T14:20:26;3.85;;;2.97;;
335;SDS011;156;48.738;9.228;2023-04-25T14:22:54;6.82;;;3.90;;
335;SDS011;156;48.738;9.228;2023-04-25T14:25:23;5.68;;;4.75;;
335;SDS011;156;48.738;9.228;2023-04-25T14:27:50;3.58;;;3.38;;
335;SDS011;156;48.738;9.228;2023-04-25T14:30:17;9.10;;;5.75;;
335;SDS011;156;48.738;9.228;2023-04-25T14:32:44;6.43;;;5.32;;
335;SDS011;156;48.738;9.228;2023-04-25T14:35:11;7.75;;;7.35;;
335;SDS011;156;48.738;9.228;2023-04-25T14:37:39;5.97;;;3.58;;
335;SDS011;156;48.738;9.228;2023-04-25T14:40:08;1.63;;;1.52;;
335;SDS011;156;48.738;9.228;2023-04-25T14:42:37;1.00;;;0.90;;
335;SDS011;156;48.738;9.228;2023-04-25T14:45:04;3.65;;;3.45;;
335;SDS011;156;48.738;9.228;2023-04-25T14:47:32;2.50;;;2.28;;
335;SDS011;156;48.738;9.228;2023-04-25T14:49:59;4.85;;;3.85;;
335;SDS011;156;48.738;9.228;2023-04-25T14:52:26;0.90;;;0.80;;
335;SDS011;156;48.738;9.228;2023-04-25T14:54:53;6.30;;;3.53;;
335;SDS011;156;48.738;9.228;2023-04-25T14:57:22;0.70;;;0.60;;
335;SDS011;156;48.738;9.228;2023-04-25T14:59:49;0.95;;;0.68;;
335;SDS011;156;48.738;9.228;2023-04-25T15:02:16;1.52;;;1.25;;
335;SDS011;156;48.738;9.228;2023-04-25T15:04:43;0.75;;;0.68;;
335;SDS011;156;48.738;9.228;2023-04-25T15:07:10;2.50;;;2.30;;
335;SDS011;156;48.738;9.228;2023-04-25T15:09:36;3.42;;;2.55;;
335;SDS011;156;48.738;9.228;2023-04-25T15:12:03;1.50;;;1.40;;
335;SDS011;156;48.738;9.228;2023-04-25T15:17:00;3.40;;;2.47;;
335;SDS011;156;48.738;9.228;2023-04-25T15:19:27;1.15;;;0.70;;
335;SDS011;156;48.738;9.228;2023-04-25T15:21:54;1.95;;;1.25;;
335;SDS011;156;48.738;9.228;2023-04-25T15:24:21;1.65;;;1.42;;
335;SDS011;156;48.738;9.228;2023-04-25T15:26:48;2.08;;;1.92;;
335;SDS011;156;48.738;9.228;2023-04-25T15:29:15;1.73;;;1.70;;
335;SDS011;156;48.738;9.228;2023-04-25T15:31:43;1.88;;;1.42;;
335;SDS011;156;48.738;9.228;2023-04-25T15:34:10;0.95;;;0.68;;
335;SDS011;156;48.738;9.228;2023-04-25T15:36:37;7.78;;;2.35;;
335;SDS011;156;48.738;9.228;2023-04-25T15:39:04;4.93;;;3.00;;
335;SDS011;156;48.738;9.228;2023-04-25T15:41:31;8.77;;;5.65;;
335;SDS011;156;48.738;9.228;2023-04-25T15:43:59;18.13;;;3.35;;
335;SDS011;156;48.738;9.228;2023-04-25T15:46:26;5.47;;;2.85;;
335;SDS011;156;48.738;9.228;2023-04-25T15:48:56;2.53;;;2.33;;
335;SDS011;156;48.738;9.228;2023-04-25T15:51:23;3.75;;;2.28;;
335;SDS011;156;48.738;9.228;2023-04-25T15:53:50;3.75;;;3.17;;